sensor_id;sensor_type;location;lat;lon;timestamp;temperature;humidity
17697;DHT22;8967;47.984;7.842;2023-02-01T00:00:31;6.60;99.90
17697;DHT22;8967;47.984;7.842;2023-02-01T00:03:01;6.60;99.90
17697;DHT22;8967;47.984;7.842;2023-02-01T00:05:28;6.60;99.90
17697;DHT22;8967;47.984;7.842;2023-02-01T00:07:55;6.60;99.90
17697;DHT22;8967;47.984;7.842;2023-02-01T00:10:22;6.60;99.90
17697;DHT22;8967;47.984;7.842;2023-02-01T00:12:48;6.60;99.90
17697;DHT22;8967;47.984;7.842;2023-02-01T00:15:15;6.60;99.90
17697;DHT22;8967;47.984;7.842;2023-02-01T00:17:42;6.60;99.90
17697;DHT22;8967;47.984;7.842;2023-02-01T00:20:11;6.60;99.90
17697;DHT22;8967;47.984;7.842;2023-02-01T00:22:38;6.60;99.90
17697;DHT22;8967;47.984;7.842;2023-02-01T00:25:06;6.60;99.90
17697;DHT22;8967;47.984;7.842;2023-02-01T00:27:33;6.60;99.90
17697;DHT22;8967;47.984;7.842;2023-02-01T00:30:03;6.60;99.90
17697;DHT22;8967;47.984;7.842;2023-02-01T00:32:30;6.60;99.90
17697;DHT22;8967;47.984;7.842;2023-02-01T00:35:00;6.60;99.90
17697;DHT22;8967;47.984;7.842;2023-02-01T00:37:28;6.60;99.90
17697;DHT22;8967;47.984;7.842;2023-02-01T00:39:55;6.60;99.90
17697;DHT22;8967;47.984;7.842;2023-02-01T00:42:22;6.60;99.90
17697;DHT22;8967;47.984;7.842;2023-02-01T00:44:48;6.60;99.90
17697;DHT22;8967;47.984;7.842;2023-02-01T00:47:15;6.60;99.90
17697;DHT22;8967;47.984;7.842;2023-02-01T00:49:42;6.60;99.90
17697;DHT22;8967;47.984;7.842;2023-02-01T00:52:09;6.60;99.90
17697;DHT22;8967;47.984;7.842;2023-02-01T00:54:37;6.60;99.90
17697;DHT22;8967;47.984;7.842;2023-02-01T00:57:04;6.60;99.90
17697;DHT22;8967;47.984;7.842;2023-02-01T00:59:31;6.60;99.90
17697;DHT22;8967;47.984;7.842;2023-02-01T01:01:58;6.50;99.90
17697;DHT22;8967;47.984;7.842;2023-02-01T01:04:27;6.50;99.90
17697;DHT22;8967;47.984;7.842;2023-02-01T01:06:54;6.60;99.90
17697;DHT22;8967;47.984;7.842;2023-02-01T01:09:21;6.50;99.90
17697;DHT22;8967;47.984;7.842;2023-02-01T01:11:49;6.50;99.90
17697;DHT22;8967;47.984;7.842;2023-02-01T01:14:18;6.50;99.90
17697;DHT22;8967;47.984;7.842;2023-02-01T01:16:45;6.50;99.90
17697;DHT22;8967;47.984;7.842;2023-02-01T01:19:12;6.50;99.90
17697;DHT22;8967;47.984;7.842;2023-02-01T01:21:39;6.50;99.90
17697;DHT22;8967;47.984;7.842;2023-02-01T01:24:08;6.50;99.90
17697;DHT22;8967;47.984;7.842;2023-02-01T01:26:37;6.50;99.90
17697;DHT22;8967;47.984;7.842;2023-02-01T01:29:05;6.50;99.90
17697;DHT22;8967;47.984;7.842;2023-02-01T01:31:32;6.50;99.90
17697;DHT22;8967;47.984;7.842;2023-02-01T01:34:00;6.50;99.90
17697;DHT22;8967;47.984;7.842;2023-02-01T01:36:28;6.50;99.90
17697;DHT22;8967;47.984;7.842;2023-02-01T01:38:55;6.50;99.90
17697;DHT22;8967;47.984;7.842;2023-02-01T01:41:24;6.50;99.90
17697;DHT22;8967;47.984;7.842;2023-02-01T01:43:56;6.50;99.90
17697;DHT22;8967;47.984;7.842;2023-02-01T01:46:28;6.50;99.90
17697;DHT22;8967;47.984;7.842;2023-02-01T01:49:02;6.50;99.90
17697;DHT22;8967;47.984;7.842;2023-02-01T01:51:34;6.50;99.90
17697;DHT22;8967;47.984;7.842;2023-02-01T01:54:05;6.50;99.90
17697;DHT22;8967;47.984;7.842;2023-02-01T01:56:34;6.50;99.90
17697;DHT22;8967;47.984;7.842;2023-02-01T01:59:03;6.50;99.90
17697;DHT22;8967;47.984;7.842;2023-02-01T02:01:32;6.40;99.90
17697;DHT22;8967;47.984;7.842;2023-02-01T02:04:00;6.40;99.90
17697;DHT22;8967;47.984;7.842;2023-02-01T02:06:37;6.40;99.90
17697;DHT22;8967;47.984;7.842;2023-02-01T02:09:05;6.40;99.90
17697;DHT22;8967;47.984;7.842;2023-02-01T02:11:32;6.40;99.90
17697;DHT22;8967;47.984;7.842;2023-02-01T02:14:03;6.40;99.90
17697;DHT22;8967;47.984;7.842;2023-02-01T02:17:03;6.40;99.90
17697;DHT22;8967;47.984;7.842;2023-02-01T02:20:14;6.40;99.90
17697;DHT22;8967;47.984;7.842;2023-02-01T02:23:18;6.40;99.90
17697;DHT22;8967;47.984;7.842;2023-02-01T02:26:23;6.40;99.90
17697;DHT22;8967;47.984;7.842;2023-02-01T02:29:27;6.40;99.90
17697;DHT22;8967;47.984;7.842;2023-02-01T02:32:27;6.40;99.90
17697;DHT22;8967;47.984;7.842;2023-02-01T02:35:02;6.40;99.90
17697;DHT22;8967;47.984;7.842;2023-02-01T02:37:39;6.40;99.90
17697;DHT22;8967;47.984;7.842;2023-02-01T02:40:14;6.40;99.90
17697;DHT22;8967;47.984;7.842;2023-02-01T02:42:45;6.40;99.90
17697;DHT22;8967;47.984;7.842;2023-02-01T02:45:38;6.40;99.90
17697;DHT22;8967;47.984;7.842;2023-02-01T02:48:27;6.40;99.90
17697;DHT22;8967;47.984;7.842;2023-02-01T02:51:00;6.40;99.90
17697;DHT22;8967;47.984;7.842;2023-02-01T02:53:53;6.40;99.90
17697;DHT22;8967;47.984;7.842;2023-02-01T02:56:42;6.40;99.90
17697;DHT22;8967;47.984;7.842;2023-02-01T02:59:28;6.40;99.90
17697;DHT22;8967;47.984;7.842;2023-02-01T03:02:14;6.40;99.90
17697;DHT22;8967;47.984;7.842;2023-02-01T03:04:59;6.40;99.90
17697;DHT22;8967;47.984;7.842;2023-02-01T03:07:55;6.40;99.90
17697;DHT22;8967;47.984;7.842;2023-02-01T03:10:30;6.40;99.90
17697;DHT22;8967;47.984;7.842;2023-02-01T03:13:02;6.40;99.90
17697;DHT22;8967;47.984;7.842;2023-02-01T03:15:35;6.40;99.90
17697;DHT22;8967;47.984;7.842;2023-02-01T03:18:07;6.40;99.90
17697;DHT22;8967;47.984;7.842;2023-02-01T03:20:39;6.40;99.90
17697;DHT22;8967;47.984;7.842;2023-02-01T03:23:10;6.40;99.90
17697;DHT22;8967;47.984;7.842;2023-02-01T03:25:38;6.40;99.90
17697;DHT22;8967;47.984;7.842;2023-02-01T03:28:08;6.40;99.90
17697;DHT22;8967;47.984;7.842;2023-02-01T03:30:41;6.40;99.90
17697;DHT22;8967;47.984;7.842;2023-02-01T03:33:14;6.40;99.90
17697;DHT22;8967;47.984;7.842;2023-02-01T03:36:03;6.40;99.90
17697;DHT22;8967;47.984;7.842;2023-02-01T03:38:38;6.40;99.90
17697;DHT22;8967;47.984;7.842;2023-02-01T03:41:13;6.40;99.90
17697;DHT22;8967;47.984;7.842;2023-02-01T03:43:50;6.40;99.90
17697;DHT22;8967;47.984;7.842;2023-02-01T03:46:25;6.40;99.90
17697;DHT22;8967;47.984;7.842;2023-02-01T03:48:54;6.40;99.90
17697;DHT22;8967;47.984;7.842;2023-02-01T03:51:23;6.40;99.90
17697;DHT22;8967;47.984;7.842;2023-02-01T03:53:53;6.40;99.90
17697;DHT22;8967;47.984;7.842;2023-02-01T03:56:22;6.40;99.90
17697;DHT22;8967;47.984;7.842;2023-02-01T03:58:49;6.40;99.90
17697;DHT22;8967;47.984;7.842;2023-02-01T04:01:29;6.40;99.90
17697;DHT22;8967;47.984;7.842;2023-02-01T04:03:56;6.40;99.90
17697;DHT22;8967;47.984;7.842;2023-02-01T04:06:24;6.30;99.90
17697;DHT22;8967;47.984;7.842;2023-02-01T04:08:54;6.30;99.90
17697;DHT22;8967;47.984;7.842;2023-02-01T04:11:21;6.30;99.90
17697;DHT22;8967;47.984;7.842;2023-02-01T04:13:48;6.30;99.90
17697;DHT22;8967;47.984;7.842;2023-02-01T04:16:14;6.40;99.90
17697;DHT22;8967;47.984;7.842;2023-02-01T04:18:44;6.30;99.90
17697;DHT22;8967;47.984;7.842;2023-02-01T04:21:11;6.30;99.90
17697;DHT22;8967;47.984;7.842;2023-02-01T04:23:37;6.30;99.90
17697;DHT22;8967;47.984;7.842;2023-02-01T04:26:06;6.30;99.90
17697;DHT22;8967;47.984;7.842;2023-02-01T04:28:33;6.30;99.90
17697;DHT22;8967;47.984;7.842;2023-02-01T04:30:59;6.30;99.90
17697;DHT22;8967;47.984;7.842;2023-02-01T04:33:26;6.30;99.90
17697;DHT22;8967;47.984;7.842;2023-02-01T04:35:53;6.20;99.90
17697;DHT22;8967;47.984;7.842;2023-02-01T04:38:20;6.20;99.90
17697;DHT22;8967;47.984;7.842;2023-02-01T04:40:47;6.20;99.90
17697;DHT22;8967;47.984;7.842;2023-02-01T04:43:16;6.20;99.90
17697;DHT22;8967;47.984;7.842;2023-02-01T04:45:49;6.20;99.90
17697;DHT22;8967;47.984;7.842;2023-02-01T04:48:16;6.20;99.90
17697;DHT22;8967;47.984;7.842;2023-02-01T04:50:43;6.10;99.90
17697;DHT22;8967;47.984;7.842;2023-02-01T04:53:13;6.10;99.90
17697;DHT22;8967;47.984;7.842;2023-02-01T04:55:40;6.00;99.90
17697;DHT22;8967;47.984;7.842;2023-02-01T04:58:07;6.00;99.90
17697;DHT22;8967;47.984;7.842;2023-02-01T05:00:36;6.00;99.90
17697;DHT22;8967;47.984;7.842;2023-02-01T05:03:03;6.00;99.90
17697;DHT22;8967;47.984;7.842;2023-02-01T05:05:30;6.00;99.90
17697;DHT22;8967;47.984;7.842;2023-02-01T05:07:57;6.00;99.90
17697;DHT22;8967;47.984;7.842;2023-02-01T05:10:24;6.00;99.90
17697;DHT22;8967;47.984;7.842;2023-02-01T05:12:51;6.00;99.90
17697;DHT22;8967;47.984;7.842;2023-02-01T05:15:39;6.00;99.90
17697;DHT22;8967;47.984;7.842;2023-02-01T05:18:06;6.00;99.90
17697;DHT22;8967;47.984;7.842;2023-02-01T05:20:33;6.00;99.90
17697;DHT22;8967;47.984;7.842;2023-02-01T05:23:00;6.00;99.90
17697;DHT22;8967;47.984;7.842;2023-02-01T05:25:27;6.00;99.90
17697;DHT22;8967;47.984;7.842;2023-02-01T05:27:56;6.00;99.90
17697;DHT22;8967;47.984;7.842;2023-02-01T05:30:23;6.00;99.90
17697;DHT22;8967;47.984;7.842;2023-02-01T05:32:53;6.00;99.90
17697;DHT22;8967;47.984;7.842;2023-02-01T05:35:23;6.00;99.90
17697;DHT22;8967;47.984;7.842;2023-02-01T05:37:49;6.00;99.90
17697;DHT22;8967;47.984;7.842;2023-02-01T05:40:17;6.00;99.90
17697;DHT22;8967;47.984;7.842;2023-02-01T05:42:43;6.00;99.90
17697;DHT22;8967;47.984;7.842;2023-02-01T05:45:11;6.00;99.90
17697;DHT22;8967;47.984;7.842;2023-02-01T05:47:38;6.00;99.90
17697;DHT22;8967;47.984;7.842;2023-02-01T05:50:07;6.00;99.90
17697;DHT22;8967;47.984;7.842;2023-02-01T05:52:34;6.00;99.90
17697;DHT22;8967;47.984;7.842;2023-02-01T05:55:01;6.00;99.90
17697;DHT22;8967;47.984;7.842;2023-02-01T05:57:28;5.90;99.90
17697;DHT22;8967;47.984;7.842;2023-02-01T05:59:55;6.00;99.90
17697;DHT22;8967;47.984;7.842;2023-02-01T06:02:22;6.00;99.90
17697;DHT22;8967;47.984;7.842;2023-02-01T06:04:49;5.90;99.90
17697;DHT22;8967;47.984;7.842;2023-02-01T06:07:18;5.90;99.90
17697;DHT22;8967;47.984;7.842;2023-02-01T06:09:45;5.90;99.90
17697;DHT22;8967;47.984;7.842;2023-02-01T06:12:11;5.90;99.90
17697;DHT22;8967;47.984;7.842;2023-02-01T06:14:41;6.00;99.90
17697;DHT22;8967;47.984;7.842;2023-02-01T06:17:09;6.00;99.90
17697;DHT22;8967;47.984;7.842;2023-02-01T06:19:36;6.00;99.90
17697;DHT22;8967;47.984;7.842;2023-02-01T06:22:02;5.90;99.90
17697;DHT22;8967;47.984;7.842;2023-02-01T06:24:33;6.00;99.90
17697;DHT22;8967;47.984;7.842;2023-02-01T06:27:00;6.00;99.90
17697;DHT22;8967;47.984;7.842;2023-02-01T06:29:27;5.90;99.90
17697;DHT22;8967;47.984;7.842;2023-02-01T06:31:53;5.90;99.90
17697;DHT22;8967;47.984;7.842;2023-02-01T06:34:20;6.00;99.90
17697;DHT22;8967;47.984;7.842;2023-02-01T06:36:48;6.00;99.90
17697;DHT22;8967;47.984;7.842;2023-02-01T06:39:17;6.00;99.90
17697;DHT22;8967;47.984;7.842;2023-02-01T06:41:47;6.00;99.90
17697;DHT22;8967;47.984;7.842;2023-02-01T06:44:15;6.00;99.90
17697;DHT22;8967;47.984;7.842;2023-02-01T06:46:42;6.00;99.90
17697;DHT22;8967;47.984;7.842;2023-02-01T06:49:09;6.00;99.90
17697;DHT22;8967;47.984;7.842;2023-02-01T06:51:36;6.00;99.90
17697;DHT22;8967;47.984;7.842;2023-02-01T06:54:05;6.00;99.90
17697;DHT22;8967;47.984;7.842;2023-02-01T06:56:32;6.00;99.90
17697;DHT22;8967;47.984;7.842;2023-02-01T06:59:03;6.00;99.90
17697;DHT22;8967;47.984;7.842;2023-02-01T07:01:30;6.00;99.90
17697;DHT22;8967;47.984;7.842;2023-02-01T07:03:57;6.00;99.90
17697;DHT22;8967;47.984;7.842;2023-02-01T07:06:24;6.00;99.90
17697;DHT22;8967;47.984;7.842;2023-02-01T07:08:51;6.00;99.90
17697;DHT22;8967;47.984;7.842;2023-02-01T07:11:21;6.00;99.90
17697;DHT22;8967;47.984;7.842;2023-02-01T07:13:50;6.00;99.90
17697;DHT22;8967;47.984;7.842;2023-02-01T07:16:20;6.00;99.90
17697;DHT22;8967;47.984;7.842;2023-02-01T07:18:49;6.00;99.90
17697;DHT22;8967;47.984;7.842;2023-02-01T07:21:17;6.00;99.90
17697;DHT22;8967;47.984;7.842;2023-02-01T07:23:44;6.00;99.90
17697;DHT22;8967;47.984;7.842;2023-02-01T07:26:12;6.00;99.90
17697;DHT22;8967;47.984;7.842;2023-02-01T07:28:40;6.00;99.90
17697;DHT22;8967;47.984;7.842;2023-02-01T07:31:08;6.00;99.90
17697;DHT22;8967;47.984;7.842;2023-02-01T07:33:37;6.00;99.90
17697;DHT22;8967;47.984;7.842;2023-02-01T07:36:05;6.00;99.90
17697;DHT22;8967;47.984;7.842;2023-02-01T07:38:33;6.00;99.90
17697;DHT22;8967;47.984;7.842;2023-02-01T07:41:00;6.00;99.90
17697;DHT22;8967;47.984;7.842;2023-02-01T07:43:28;6.10;99.90
17697;DHT22;8967;47.984;7.842;2023-02-01T07:45:55;6.10;99.90
17697;DHT22;8967;47.984;7.842;2023-02-01T07:48:23;6.10;99.90
17697;DHT22;8967;47.984;7.842;2023-02-01T07:50:58;6.10;99.90
17697;DHT22;8967;47.984;7.842;2023-02-01T07:53:29;6.10;99.90
17697;DHT22;8967;47.984;7.842;2023-02-01T07:55:57;6.10;99.90
17697;DHT22;8967;47.984;7.842;2023-02-01T07:58:24;6.10;99.90
17697;DHT22;8967;47.984;7.842;2023-02-01T08:00:51;6.20;99.90
17697;DHT22;8967;47.984;7.842;2023-02-01T08:03:36;6.20;99.90
17697;DHT22;8967;47.984;7.842;2023-02-01T08:06:05;6.30;99.90
17697;DHT22;8967;47.984;7.842;2023-02-01T08:08:32;6.20;99.90
17697;DHT22;8967;47.984;7.842;2023-02-01T08:11:00;6.30;99.90
17697;DHT22;8967;47.984;7.842;2023-02-01T08:13:27;6.30;99.90
17697;DHT22;8967;47.984;7.842;2023-02-01T08:15:58;6.30;99.90
17697;DHT22;8967;47.984;7.842;2023-02-01T08:18:26;6.30;99.90
17697;DHT22;8967;47.984;7.842;2023-02-01T08:20:53;6.30;99.90
17697;DHT22;8967;47.984;7.842;2023-02-01T08:23:22;6.30;99.90
17697;DHT22;8967;47.984;7.842;2023-02-01T08:25:49;6.30;99.90
17697;DHT22;8967;47.984;7.842;2023-02-01T08:28:19;6.30;99.90
17697;DHT22;8967;47.984;7.842;2023-02-01T08:30:46;6.30;99.90
17697;DHT22;8967;47.984;7.842;2023-02-01T08:33:13;6.30;99.90
17697;DHT22;8967;47.984;7.842;2023-02-01T08:35:40;6.40;99.90
17697;DHT22;8967;47.984;7.842;2023-02-01T08:38:07;6.40;99.90
17697;DHT22;8967;47.984;7.842;2023-02-01T08:40:35;6.40;99.90
17697;DHT22;8967;47.984;7.842;2023-02-01T08:43:02;6.40;99.90
17697;DHT22;8967;47.984;7.842;2023-02-01T08:45:30;6.40;99.90
17697;DHT22;8967;47.984;7.842;2023-02-01T08:47:57;6.40;99.90
17697;DHT22;8967;47.984;7.842;2023-02-01T08:50:24;6.40;99.90
17697;DHT22;8967;47.984;7.842;2023-02-01T08:52:52;6.40;99.90
17697;DHT22;8967;47.984;7.842;2023-02-01T08:55:19;6.50;99.90
17697;DHT22;8967;47.984;7.842;2023-02-01T08:57:47;6.50;99.90
17697;DHT22;8967;47.984;7.842;2023-02-01T09:00:16;6.50;99.90
17697;DHT22;8967;47.984;7.842;2023-02-01T09:02:43;6.50;99.90
17697;DHT22;8967;47.984;7.842;2023-02-01T09:05:11;6.50;99.90
17697;DHT22;8967;47.984;7.842;2023-02-01T09:07:41;6.50;99.90
17697;DHT22;8967;47.984;7.842;2023-02-01T09:10:11;6.50;99.90
17697;DHT22;8967;47.984;7.842;2023-02-01T09:12:38;6.50;99.90
17697;DHT22;8967;47.984;7.842;2023-02-01T09:15:07;6.50;99.90
17697;DHT22;8967;47.984;7.842;2023-02-01T09:17:37;6.50;99.90
17697;DHT22;8967;47.984;7.842;2023-02-01T09:20:04;6.50;99.90
17697;DHT22;8967;47.984;7.842;2023-02-01T09:22:34;6.60;99.90
17697;DHT22;8967;47.984;7.842;2023-02-01T09:25:00;6.60;99.90
17697;DHT22;8967;47.984;7.842;2023-02-01T09:27:27;6.60;99.90
17697;DHT22;8967;47.984;7.842;2023-02-01T09:29:54;6.70;99.90
17697;DHT22;8967;47.984;7.842;2023-02-01T09:32:23;6.70;99.90
17697;DHT22;8967;47.984;7.842;2023-02-01T09:34:51;6.80;99.90
17697;DHT22;8967;47.984;7.842;2023-02-01T09:37:19;6.80;99.90
17697;DHT22;8967;47.984;7.842;2023-02-01T09:39:46;6.80;99.90
17697;DHT22;8967;47.984;7.842;2023-02-01T09:42:21;6.90;99.90
17697;DHT22;8967;47.984;7.842;2023-02-01T09:45:10;6.90;99.90
17697;DHT22;8967;47.984;7.842;2023-02-01T09:47:45;6.90;99.90
17697;DHT22;8967;47.984;7.842;2023-02-01T09:50:15;6.90;99.90
17697;DHT22;8967;47.984;7.842;2023-02-01T09:52:50;6.90;99.90
17697;DHT22;8967;47.984;7.842;2023-02-01T09:55:24;6.90;99.90
17697;DHT22;8967;47.984;7.842;2023-02-01T09:57:57;6.80;99.90
17697;DHT22;8967;47.984;7.842;2023-02-01T10:00:30;6.80;99.90
17697;DHT22;8967;47.984;7.842;2023-02-01T10:03:00;6.80;99.90
17697;DHT22;8967;47.984;7.842;2023-02-01T10:05:44;6.90;99.90
17697;DHT22;8967;47.984;7.842;2023-02-01T10:08:21;7.00;99.90
17697;DHT22;8967;47.984;7.842;2023-02-01T10:10:54;7.00;99.90
17697;DHT22;8967;47.984;7.842;2023-02-01T10:13:48;7.00;99.90
17697;DHT22;8967;47.984;7.842;2023-02-01T10:16:28;7.10;99.90
17697;DHT22;8967;47.984;7.842;2023-02-01T10:19:09;7.10;99.90
17697;DHT22;8967;47.984;7.842;2023-02-01T10:21:52;7.10;99.90
17697;DHT22;8967;47.984;7.842;2023-02-01T10:24:39;7.10;99.90
17697;DHT22;8967;47.984;7.842;2023-02-01T10:27:19;7.20;99.90
17697;DHT22;8967;47.984;7.842;2023-02-01T10:29:52;7.20;99.90
17697;DHT22;8967;47.984;7.842;2023-02-01T10:32:22;7.30;99.90
17697;DHT22;8967;47.984;7.842;2023-02-01T10:34:55;7.30;99.90
17697;DHT22;8967;47.984;7.842;2023-02-01T10:37:26;7.30;99.90
17697;DHT22;8967;47.984;7.842;2023-02-01T10:39:55;7.30;99.90
17697;DHT22;8967;47.984;7.842;2023-02-01T10:42:25;7.40;99.90
17697;DHT22;8967;47.984;7.842;2023-02-01T10:44:55;7.40;99.90
17697;DHT22;8967;47.984;7.842;2023-02-01T10:47:23;7.40;99.90
17697;DHT22;8967;47.984;7.842;2023-02-01T10:49:57;7.40;99.90
17697;DHT22;8967;47.984;7.842;2023-02-01T10:52:36;7.40;99.90
17697;DHT22;8967;47.984;7.842;2023-02-01T10:55:26;7.40;99.90
17697;DHT22;8967;47.984;7.842;2023-02-01T10:57:57;7.40;99.90
17697;DHT22;8967;47.984;7.842;2023-02-01T11:00:25;7.40;99.90
17697;DHT22;8967;47.984;7.842;2023-02-01T11:02:55;7.50;99.90
17697;DHT22;8967;47.984;7.842;2023-02-01T11:05:24;7.40;99.90
17697;DHT22;8967;47.984;7.842;2023-02-01T11:07:54;7.40;99.90
17697;DHT22;8967;47.984;7.842;2023-02-01T11:10:35;7.50;99.90
17697;DHT22;8967;47.984;7.842;2023-02-01T11:13:03;7.50;99.90
17697;DHT22;8967;47.984;7.842;2023-02-01T11:15:31;7.50;99.90
17697;DHT22;8967;47.984;7.842;2023-02-01T11:18:14;7.50;99.90
17697;DHT22;8967;47.984;7.842;2023-02-01T11:20:42;7.60;99.90
17697;DHT22;8967;47.984;7.842;2023-02-01T11:23:16;7.60;99.90
17697;DHT22;8967;47.984;7.842;2023-02-01T11:25:54;7.60;99.90
17697;DHT22;8967;47.984;7.842;2023-02-01T11:28:25;7.60;99.90
17697;DHT22;8967;47.984;7.842;2023-02-01T11:30:56;7.70;99.90
17697;DHT22;8967;47.984;7.842;2023-02-01T11:33:26;7.70;99.90
17697;DHT22;8967;47.984;7.842;2023-02-01T11:35:57;7.70;99.90
17697;DHT22;8967;47.984;7.842;2023-02-01T11:38:29;7.80;99.90
17697;DHT22;8967;47.984;7.842;2023-02-01T11:41:11;7.70;99.90
17697;DHT22;8967;47.984;7.842;2023-02-01T11:43:51;7.80;99.90
17697;DHT22;8967;47.984;7.842;2023-02-01T11:46:19;7.90;99.90
17697;DHT22;8967;47.984;7.842;2023-02-01T11:48:51;7.90;99.90
17697;DHT22;8967;47.984;7.842;2023-02-01T11:51:37;7.90;99.90
17697;DHT22;8967;47.984;7.842;2023-02-01T11:57:04;7.90;99.90
17697;DHT22;8967;47.984;7.842;2023-02-01T11:59:52;7.90;99.90
17697;DHT22;8967;47.984;7.842;2023-02-01T12:05:45;8.00;99.90
17697;DHT22;8967;47.984;7.842;2023-02-01T12:08:42;8.00;99.90
17697;DHT22;8967;47.984;7.842;2023-02-01T12:11:33;7.90;99.90
17697;DHT22;8967;47.984;7.842;2023-02-01T12:14:14;8.00;99.90
17697;DHT22;8967;47.984;7.842;2023-02-01T12:17:00;8.00;99.90
17697;DHT22;8967;47.984;7.842;2023-02-01T12:19:42;8.00;99.90
17697;DHT22;8967;47.984;7.842;2023-02-01T12:22:22;8.00;99.90
17697;DHT22;8967;47.984;7.842;2023-02-01T12:25:09;8.00;99.90
17697;DHT22;8967;47.984;7.842;2023-02-01T12:28:08;8.00;99.90
17697;DHT22;8967;47.984;7.842;2023-02-01T12:31:06;8.10;99.90
17697;DHT22;8967;47.984;7.842;2023-02-01T12:33:44;8.10;99.90
17697;DHT22;8967;47.984;7.842;2023-02-01T12:36:22;8.10;99.90
17697;DHT22;8967;47.984;7.842;2023-02-01T12:38:55;8.10;99.80
17697;DHT22;8967;47.984;7.842;2023-02-01T12:44:27;8.10;99.80
17697;DHT22;8967;47.984;7.842;2023-02-01T12:46:58;8.10;99.70
17697;DHT22;8967;47.984;7.842;2023-02-01T12:49:34;8.10;99.60
17697;DHT22;8967;47.984;7.842;2023-02-01T12:52:10;8.10;99.70
17697;DHT22;8967;47.984;7.842;2023-02-01T12:54:41;8.10;99.70
17697;DHT22;8967;47.984;7.842;2023-02-01T12:57:16;8.10;99.80
17697;DHT22;8967;47.984;7.842;2023-02-01T12:59:49;8.00;99.70
17697;DHT22;8967;47.984;7.842;2023-02-01T13:02:24;8.00;99.70
17697;DHT22;8967;47.984;7.842;2023-02-01T13:04:58;8.00;99.80
17697;DHT22;8967;47.984;7.842;2023-02-01T13:07:30;8.00;99.90
17697;DHT22;8967;47.984;7.842;2023-02-01T13:10:03;8.00;99.90
17697;DHT22;8967;47.984;7.842;2023-02-01T13:12:36;8.00;99.60
17697;DHT22;8967;47.984;7.842;2023-02-01T13:15:12;8.00;99.60
17697;DHT22;8967;47.984;7.842;2023-02-01T13:17:43;7.90;99.70
17697;DHT22;8967;47.984;7.842;2023-02-01T13:20:18;8.00;99.70
17697;DHT22;8967;47.984;7.842;2023-02-01T13:22:50;7.90;99.60
17697;DHT22;8967;47.984;7.842;2023-02-01T13:25:27;8.00;99.50
17697;DHT22;8967;47.984;7.842;2023-02-01T13:28:02;7.90;99.40
17697;DHT22;8967;47.984;7.842;2023-02-01T13:30:38;7.90;99.30
17697;DHT22;8967;47.984;7.842;2023-02-01T13:33:25;8.00;99.20
17697;DHT22;8967;47.984;7.842;2023-02-01T13:36:10;8.00;99.20
17697;DHT22;8967;47.984;7.842;2023-02-01T13:39:08;7.90;99.20
17697;DHT22;8967;47.984;7.842;2023-02-01T13:41:42;7.90;99.10
17697;DHT22;8967;47.984;7.842;2023-02-01T13:44:25;7.90;99.00
17697;DHT22;8967;47.984;7.842;2023-02-01T13:46:58;7.90;99.00
17697;DHT22;8967;47.984;7.842;2023-02-01T13:49:28;7.90;99.00
17697;DHT22;8967;47.984;7.842;2023-02-01T13:51:58;7.90;99.00
17697;DHT22;8967;47.984;7.842;2023-02-01T13:54:30;7.90;99.00
17697;DHT22;8967;47.984;7.842;2023-02-01T13:57:01;7.90;98.90
17697;DHT22;8967;47.984;7.842;2023-02-01T14:02:49;7.80;98.50
17697;DHT22;8967;47.984;7.842;2023-02-01T14:05:55;7.80;98.50
17697;DHT22;8967;47.984;7.842;2023-02-01T14:08:36;7.80;98.70
17697;DHT22;8967;47.984;7.842;2023-02-01T14:11:04;7.80;98.60
17697;DHT22;8967;47.984;7.842;2023-02-01T14:13:32;7.80;98.60
17697;DHT22;8967;47.984;7.842;2023-02-01T14:16:16;7.80;98.60
17697;DHT22;8967;47.984;7.842;2023-02-01T14:19:00;7.70;98.60
17697;DHT22;8967;47.984;7.842;2023-02-01T14:21:30;7.80;98.70
17697;DHT22;8967;47.984;7.842;2023-02-01T14:24:01;7.80;98.60
17697;DHT22;8967;47.984;7.842;2023-02-01T14:26:42;7.70;98.40
17697;DHT22;8967;47.984;7.842;2023-02-01T14:29:21;7.70;98.30
17697;DHT22;8967;47.984;7.842;2023-02-01T14:31:54;7.70;98.30
17697;DHT22;8967;47.984;7.842;2023-02-01T14:34:31;7.70;98.20
17697;DHT22;8967;47.984;7.842;2023-02-01T14:37:05;7.70;98.30
17697;DHT22;8967;47.984;7.842;2023-02-01T14:39:37;7.70;98.00
17697;DHT22;8967;47.984;7.842;2023-02-01T14:42:18;7.70;97.80
17697;DHT22;8967;47.984;7.842;2023-02-01T14:44:47;7.70;97.80
17697;DHT22;8967;47.984;7.842;2023-02-01T14:47:30;7.70;97.60
17697;DHT22;8967;47.984;7.842;2023-02-01T14:52:47;7.70;97.80
17697;DHT22;8967;47.984;7.842;2023-02-01T14:55:18;7.60;97.80
17697;DHT22;8967;47.984;7.842;2023-02-01T14:57:51;7.60;97.80
17697;DHT22;8967;47.984;7.842;2023-02-01T15:00:23;7.60;97.90
17697;DHT22;8967;47.984;7.842;2023-02-01T15:02:51;7.60;97.70
17697;DHT22;8967;47.984;7.842;2023-02-01T15:05:29;7.60;97.80
17697;DHT22;8967;47.984;7.842;2023-02-01T15:08:15;7.60;97.90
17697;DHT22;8967;47.984;7.842;2023-02-01T15:10:46;7.60;97.90
17697;DHT22;8967;47.984;7.842;2023-02-01T15:13:21;7.60;97.80
17697;DHT22;8967;47.984;7.842;2023-02-01T15:16:03;7.50;97.90
17697;DHT22;8967;47.984;7.842;2023-02-01T15:18:31;7.60;97.90
17697;DHT22;8967;47.984;7.842;2023-02-01T15:21:01;7.60;97.90
17697;DHT22;8967;47.984;7.842;2023-02-01T15:23:29;7.50;97.90
17697;DHT22;8967;47.984;7.842;2023-02-01T15:25:59;7.50;98.00
17697;DHT22;8967;47.984;7.842;2023-02-01T15:28:26;7.50;97.80
17697;DHT22;8967;47.984;7.842;2023-02-01T15:30:57;7.60;97.80
17697;DHT22;8967;47.984;7.842;2023-02-01T15:33:26;7.50;97.90
17697;DHT22;8967;47.984;7.842;2023-02-01T15:35:54;7.50;98.00
17697;DHT22;8967;47.984;7.842;2023-02-01T15:38:35;7.50;98.00
17697;DHT22;8967;47.984;7.842;2023-02-01T15:41:07;7.50;98.10
17697;DHT22;8967;47.984;7.842;2023-02-01T15:43:37;7.50;98.10
17697;DHT22;8967;47.984;7.842;2023-02-01T15:46:08;7.50;98.20
17697;DHT22;8967;47.984;7.842;2023-02-01T15:48:42;7.50;98.30
17697;DHT22;8967;47.984;7.842;2023-02-01T15:51:14;7.50;98.30
17697;DHT22;8967;47.984;7.842;2023-02-01T15:53:47;7.50;98.30
17697;DHT22;8967;47.984;7.842;2023-02-01T15:56:15;7.40;98.60
17697;DHT22;8967;47.984;7.842;2023-02-01T15:58:50;7.50;98.30
17697;DHT22;8967;47.984;7.842;2023-02-01T16:01:20;7.40;98.20
17697;DHT22;8967;47.984;7.842;2023-02-01T16:03:47;7.50;98.20
17697;DHT22;8967;47.984;7.842;2023-02-01T16:06:31;7.40;98.10
17697;DHT22;8967;47.984;7.842;2023-02-01T16:09:11;7.50;98.20
17697;DHT22;8967;47.984;7.842;2023-02-01T16:11:49;7.50;98.10
17697;DHT22;8967;47.984;7.842;2023-02-01T16:14:18;7.50;97.80
17697;DHT22;8967;47.984;7.842;2023-02-01T16:16:45;7.50;97.80
17697;DHT22;8967;47.984;7.842;2023-02-01T16:19:12;7.40;97.70
17697;DHT22;8967;47.984;7.842;2023-02-01T16:21:39;7.40;97.60
17697;DHT22;8967;47.984;7.842;2023-02-01T16:24:09;7.40;97.50
17697;DHT22;8967;47.984;7.842;2023-02-01T16:26:37;7.40;97.50
17697;DHT22;8967;47.984;7.842;2023-02-01T16:29:05;7.40;97.50
17697;DHT22;8967;47.984;7.842;2023-02-01T16:31:34;7.50;97.50
17697;DHT22;8967;47.984;7.842;2023-02-01T16:34:02;7.50;97.60
17697;DHT22;8967;47.984;7.842;2023-02-01T16:36:29;7.40;97.80
17697;DHT22;8967;47.984;7.842;2023-02-01T16:38:56;7.50;98.00
17697;DHT22;8967;47.984;7.842;2023-02-01T16:41:25;7.50;98.10
17697;DHT22;8967;47.984;7.842;2023-02-01T16:43:54;7.40;98.10
17697;DHT22;8967;47.984;7.842;2023-02-01T16:46:24;7.40;98.10
17697;DHT22;8967;47.984;7.842;2023-02-01T16:48:54;7.40;98.20